Wetterdaten: aktuell Donnerstag, 07.05.2026 20:00
Datum Zeit Arbeit-Z. Temp. A. Bod.+5cm Temp. A. min Temp. A. max Bl.Temp +1m BTemp -5cm BTemp -10cm BTemp -20cm BTemp -50cm Feuchte I. Feuchte A. BlattFeu +1m BFeucht -5cm BFeucht-10cm BFeucht-20cm BFeucht-50cm Luftdruck Regen Wind Richtung Richtung Sonnenschein ET UV Solar Taupunkt Windchill Windböen Empfang
07.05.2026 20:00 22,6 °C 13,9 °C 12,8 °C 13,9 °C 14,3 °C 14,4 °C 14,4 °C 14,4 °C 13,9 °C 13,9 °C 48 % 78 % 0 lf 200 cb 176 cb 83 cb 75 cb 1013,0 hPa 0,0 l/m² 0,4 km/h (0 Bft) S-SW 212 ° 0 min 0,051 mm 0,0 UV-I 44 W/m² 10,1 °C 13,9 °C 1,6 km/h (1 Bft) 97,44 %
07.05.2026 19:00 22,7 °C 15,1 °C 13,9 °C 15,0 °C 15,1 °C 14,4 °C 14,4 °C 14,4 °C 13,9 °C 13,9 °C 47 % 72 % 0 lf 200 cb 175 cb 83 cb 75 cb 1012,9 hPa 0,0 l/m² 2,3 km/h (1 Bft) N-NW 345 ° 0 min 0,076 mm 0,0 UV-I 60 W/m² 10,1 °C 15,1 °C 8,0 km/h (2 Bft) 96,40 %
07.05.2026 18:00 22,8 °C 15,4 °C 13,9 °C 15,4 °C 15,4 °C 14,4 °C 14,4 °C 14,4 °C 13,9 °C 13,9 °C 48 % 70 % 0 lf 200 cb 175 cb 83 cb 75 cb 1012,8 hPa 0,0 l/m² 3,7 km/h (1 Bft) NW 316 ° 15 min 0,076 mm 0,0 UV-I 102 W/m² 10,0 °C 15,4 °C 8,0 km/h (2 Bft) 93,64 %
07.05.2026 17:00 22,7 °C 15,4 °C 14,4 °C 15,4 °C 15,5 °C 14,4 °C 14,4 °C 14,4 °C 13,9 °C 13,9 °C 48 % 69 % 0 lf 200 cb 175 cb 83 cb 75 cb 1012,7 hPa 0,0 l/m² 0,6 km/h (0 Bft) N-NW 331 ° 25 min 0,102 mm 0,0 UV-I 104 W/m² 9,7 °C 15,4 °C 3,2 km/h (1 Bft) 95,80 %
07.05.2026 16:00 22,7 °C 15,5 °C 14,4 °C 15,5 °C 15,7 °C 14,4 °C 14,4 °C 13,9 °C 13,9 °C 13,9 °C 48 % 68 % 0 lf 200 cb 174 cb 83 cb 74 cb 1012,7 hPa 0,0 l/m² 2,9 km/h (1 Bft) N 11 ° 60 min 0,152 mm 0,9 UV-I 171 W/m² 9,6 °C 15,5 °C 8,0 km/h (2 Bft) 97,44 %
07.05.2026 15:00 22,7 °C 15,5 °C 15,0 °C 15,1 °C 15,6 °C 13,9 °C 13,9 °C 13,9 °C 13,9 °C 14,4 °C 48 % 70 % 0 lf 200 cb 173 cb 83 cb 75 cb 1012,8 hPa 0,0 l/m² 2,4 km/h (1 Bft) SW 228 ° 50 min 0,152 mm 1,4 UV-I 251 W/m² 10,1 °C 15,5 °C 6,4 km/h (2 Bft) 92,31 %
07.05.2026 14:00 22,6 °C 13,2 °C 12,2 °C 13,2 °C 13,3 °C 13,9 °C 13,9 °C 13,9 °C 13,9 °C 14,4 °C 50 % 84 % 0 lf 200 cb 173 cb 83 cb 74 cb 1012,8 hPa 0,0 l/m² 0,7 km/h (0 Bft) SW 236 ° 0 min 0,051 mm 0,0 UV-I 67 W/m² 10,6 °C 13,2 °C 3,2 km/h (1 Bft) 99,06 %
07.05.2026 13:00 22,4 °C 13,2 °C 11,7 °C 13,2 °C 13,3 °C 13,9 °C 13,9 °C 13,9 °C 13,9 °C 14,4 °C 51 % 80 % 0 lf 200 cb 176 cb 83 cb 74 cb 1012,7 hPa 0,0 l/m² 0,9 km/h (0 Bft) W-SW 238 ° 5 min 0,076 mm 0,7 UV-I 128 W/m² 9,8 °C 13,2 °C 3,2 km/h (1 Bft) 96,75 %
07.05.2026 12:00 22,3 °C 14,3 °C 13,3 °C 14,2 °C 14,3 °C 13,3 °C 13,3 °C 13,9 °C 13,9 °C 14,4 °C 51 % 79 % 0 lf 200 cb 176 cb 83 cb 74 cb 1012,4 hPa 0,0 l/m² 3,2 km/h (1 Bft) S-SW 213 ° 60 min 0,254 mm 3,8 UV-I 837 W/m² 10,7 °C 14,3 °C 8,0 km/h (2 Bft) 94,02 %
07.05.2026 11:00 22,2 °C 12,5 °C 11,1 °C 12,5 °C 12,6 °C 12,8 °C 12,8 °C 13,9 °C 13,9 °C 14,4 °C 51 % 85 % 0 lf 200 cb 174 cb 83 cb 74 cb 1012,2 hPa 0,0 l/m² 1,7 km/h (1 Bft) S 173 ° 30 min 0,077 mm 1,6 UV-I 211 W/m² 10,0 °C 12,5 °C 4,8 km/h (1 Bft) 98,33 %
07.05.2026 10:00 22,3 °C 11,8 °C 10,0 °C 11,7 °C 11,8 °C 12,8 °C 12,8 °C 13,9 °C 13,9 °C 14,4 °C 50 % 87 % 2 lf 200 cb 176 cb 83 cb 74 cb 1012,0 hPa 0,0 l/m² 2,5 km/h (1 Bft) N-NW 347 ° 25 min 0,076 mm 0,0 UV-I 76 W/m² 9,7 °C 11,8 °C 8,0 km/h (2 Bft) 96,58 %
07.05.2026 09:00 22,2 °C 11,6 °C 10,6 °C 11,4 °C 11,6 °C 12,8 °C 12,8 °C 13,9 °C 13,9 °C 14,4 °C 50 % 89 % 14 lf 200 cb 176 cb 83 cb 73 cb 1011,5 hPa 0,0 l/m² 0,9 km/h (0 Bft) O-SO 113 ° 15 min 0,051 mm 0,7 UV-I 171 W/m² 9,8 °C 11,6 °C 4,8 km/h (1 Bft) 97,32 %
07.05.2026 08:00 22,3 °C 10,8 °C 10,0 °C 10,8 °C 10,8 °C 12,8 °C 12,8 °C 13,9 °C 14,4 °C 14,4 °C 51 % 91 % 15 lf 200 cb 174 cb 84 cb 73 cb 1010,9 hPa 0,0 l/m² 1,1 km/h (1 Bft) NO 35 ° 0 min 0,025 mm 0,0 UV-I 69 W/m² 9,4 °C 10,8 °C 4,8 km/h (1 Bft) 96,64 %
07.05.2026 07:00 22,3 °C 10,4 °C 9,4 °C 10,4 °C 10,5 °C 12,8 °C 12,8 °C 13,9 °C 14,4 °C 14,4 °C 50 % 92 % 15 lf 200 cb 173 cb 84 cb 73 cb 1010,3 hPa 0,4 l/m² 3,0 km/h (1 Bft) S-SW 202 ° 0 min 0,000 mm 0,0 UV-I 25 W/m² 9,2 °C 10,4 °C 9,7 km/h (2 Bft) 91,87 %
07.05.2026 06:00 22,3 °C 10,4 °C 9,4 °C 10,3 °C 10,4 °C 12,8 °C 12,8 °C 13,9 °C 14,4 °C 14,4 °C 50 % 92 % 15 lf 200 cb 174 cb 83 cb 74 cb 1009,7 hPa 0,2 l/m² 0,7 km/h (0 Bft) S-SO 159 ° 0 min 0,000 mm 0,0 UV-I 0 W/m² 9,2 °C 10,4 °C 1,6 km/h (1 Bft) 98,21 %
07.05.2026 05:00 22,4 °C 10,7 °C 9,4 °C 10,7 °C 10,7 °C 12,8 °C 12,8 °C 13,9 °C 14,4 °C 14,4 °C 50 % 92 % 15 lf 200 cb 173 cb 83 cb 74 cb 1009,1 hPa 0,4 l/m² 2,6 km/h (1 Bft) N 9 ° 0 min 0,000 mm 0,0 UV-I 0 W/m² 9,5 °C 10,7 °C 8,0 km/h (2 Bft) 97,35 %
07.05.2026 04:00 22,4 °C 10,9 °C 10,0 °C 10,9 °C 10,9 °C 12,8 °C 12,8 °C 14,4 °C 14,4 °C 14,4 °C 50 % 93 % 14 lf 200 cb 174 cb 83 cb 77 cb 1008,6 hPa 0,8 l/m² 0,2 km/h (0 Bft) S 189 ° 0 min 0,000 mm 0,0 UV-I 0 W/m² 9,8 °C 10,9 °C 1,6 km/h (1 Bft) 93,58 %
07.05.2026 03:00 22,5 °C 11,2 °C 10,0 °C 11,2 °C 11,2 °C 13,3 °C 13,3 °C 14,4 °C 14,4 °C 14,4 °C 50 % 92 % 15 lf 200 cb 173 cb 83 cb 80 cb 1008,2 hPa 1,0 l/m² 1,4 km/h (1 Bft) SO 142 ° 0 min 0,000 mm 0,0 UV-I 0 W/m² 9,9 °C 11,2 °C 3,2 km/h (1 Bft) 97,46 %
07.05.2026 02:00 22,6 °C 11,2 °C 10,0 °C 11,2 °C 11,2 °C 13,3 °C 13,3 °C 14,4 °C 15,0 °C 14,4 °C 51 % 94 % 13 lf 200 cb 174 cb 83 cb 83 cb 1007,8 hPa 1,6 l/m² 3,7 km/h (1 Bft) NW 312 ° 0 min 0,000 mm 0,0 UV-I 0 W/m² 10,3 °C 11,2 °C 6,4 km/h (2 Bft) 90,00 %
07.05.2026 01:00 22,6 °C 11,2 °C 10,0 °C 11,1 °C 11,2 °C 13,3 °C 13,3 °C 14,4 °C 15,0 °C 14,4 °C 51 % 93 % 13 lf 200 cb 174 cb 83 cb 83 cb 1007,6 hPa 1,4 l/m² 1,3 km/h (1 Bft) S 178 ° 0 min 0,000 mm 0,0 UV-I 0 W/m² 10,1 °C 11,2 °C 3,2 km/h (1 Bft) 99,17 %
07.05.2026 00:00 22,7 °C 11,4 °C 10,0 °C 11,4 °C 11,6 °C 13,9 °C 13,9 °C 15,0 °C 15,0 °C 14,4 °C 52 % 93 % 12 lf 200 cb 177 cb 83 cb 83 cb 1007,3 hPa 4,8 l/m² 4,1 km/h (1 Bft) O-SO 115 ° 0 min 0,000 mm 0,0 UV-I 0 W/m² 10,3 °C 11,4 °C 9,7 km/h (2 Bft) 92,68 %
06.05.2026 23:00 22,7 °C 12,0 °C 10,6 °C 12,0 °C 12,1 °C 13,9 °C 13,9 °C 15,0 °C 15,0 °C 14,4 °C 52 % 91 % 11 lf 200 cb 177 cb 83 cb 84 cb 1007,2 hPa 3,2 l/m² 2,2 km/h (1 Bft) SO 135 ° 0 min 0,000 mm 0,0 UV-I 0 W/m² 10,6 °C 12,0 °C 4,8 km/h (1 Bft) 95,73 %
06.05.2026 22:00 22,7 °C 12,4 °C 11,1 °C 12,4 °C 12,4 °C 14,4 °C 14,4 °C 15,0 °C 15,0 °C 14,4 °C 52 % 93 % 13 lf 200 cb 180 cb 84 cb 84 cb 1006,5 hPa 4,4 l/m² 2,2 km/h (1 Bft) S-SO 167 ° 0 min 0,000 mm 0,0 UV-I 0 W/m² 11,3 °C 12,4 °C 8,0 km/h (2 Bft) 94,35 %
06.05.2026 21:00 22,7 °C 12,8 °C 11,7 °C 12,8 °C 12,9 °C 14,4 °C 14,4 °C 15,0 °C 15,0 °C 14,4 °C 53 % 93 % 14 lf 200 cb 184 cb 86 cb 84 cb 1005,9 hPa 0,0 l/m² 1,2 km/h (1 Bft) S-SW 206 ° 0 min 0,000 mm 0,0 UV-I 0 W/m² 11,7 °C 12,8 °C 4,8 km/h (1 Bft) 92,37 %
_ Min-Zeit 08:10 06:00 04:05 06:00 05:55 04:00 04:00 04:25 08:50 15:30 18:40 15:20 10:10 21:00 13:20 23:25 06:40 21:00 - 03:30 - - - - - - 06:05 06:05 03:30 03:45
Minimum _ 22,2 °C 10,3 °C 9,4 °C 10,3 °C 10,4 °C 12,8 °C 12,8 °C 13,9 °C 13,9 °C 13,9 °C 47 % 67 % 0 lf 200 cb 172 cb 82 cb 73 cb 1005,9 hPa - 0,0 km/h (0 Bft) - - - - - - 9,1 °C 10,3 °C 0,0 km/h (0 Bft) 88,03 %
_ Max-Zeit 17:20 15:45 14:55 15:50 15:45 21:00 21:00 21:00 21:00 21:00 21:00 01:40 02:55 21:00 21:00 21:00 21:00 19:55 21:20 12:10 - - 08:50 12:00 12:00 11:40 21:00 15:45 23:30 07:55
Maximum _ 22,8 °C 15,9 °C 15,0 °C 15,8 °C 15,9 °C 14,4 °C 14,4 °C 15,0 °C 15,0 °C 14,4 °C 53 % 94 % 15 lf 200 cb 184 cb 86 cb 84 cb 1013,0 hPa 0,6 l/m² 6,8 km/h
W-SW (2 Bft)
- - 5 min 0,254 mm 3,8 UV-I 1018 W/m² 11,7 °C 15,9 °C 17,7 km/h
O-SO (3 Bft)
100,00 %
Durchschnitt _ 22,5 °C 12,6 °C 11,4 °C 12,6 °C 12,7 °C 13,6 °C 13,6 °C 14,3 °C 14,3 °C 14,3 °C 50 % 86 % 8 lf 200 cb 176 cb 83 cb 77 cb 1010,1 hPa #18,2 l/m² 1,9 km/h (1 Bft) N - #4:45 h #1,143 mm 1,2 UV-I 152 W/m² 10,2 °C 12,6 °C 5,7 km/h (1 Bft) 95,08 %
copy; 2009 Dieter Kraft